createdAt,value
2022-07-26T00:00:55.428Z,13.17
2022-07-26T00:03:22.003Z,11.55
2022-07-26T00:05:48.555Z,12.50
2022-07-26T00:08:15.126Z,12.33
2022-07-26T00:10:44.677Z,10.40
2022-07-26T00:13:11.680Z,12.50
2022-07-26T00:15:39.012Z,9.60
2022-07-26T00:18:06.256Z,13.50
2022-07-26T00:20:38.364Z,11.73
2022-07-26T00:23:05.443Z,15.00
2022-07-26T00:25:32.100Z,12.97
2022-07-26T00:27:58.914Z,9.10
2022-07-26T00:30:25.457Z,10.20
2022-07-26T00:32:52.905Z,10.60
2022-07-26T00:35:20.326Z,11.67
2022-07-26T00:37:47.660Z,11.20
2022-07-26T00:40:15.572Z,11.57
2022-07-26T00:42:42.667Z,10.60
2022-07-26T00:45:10.462Z,9.30
2022-07-26T00:47:37.101Z,13.43
2022-07-26T00:50:07.598Z,11.47
2022-07-26T00:52:34.172Z,10.87
2022-07-26T00:55:00.694Z,14.70
2022-07-26T00:57:27.222Z,10.93
2022-07-26T00:59:53.720Z,12.07
2022-07-26T01:02:20.738Z,11.50
2022-07-26T01:04:47.264Z,11.03
2022-07-26T01:07:15.725Z,10.83
2022-07-26T01:09:43.500Z,11.70
2022-07-26T01:12:11.337Z,11.53
2022-07-26T01:14:38.117Z,17.93
2022-07-26T01:17:04.643Z,12.43
2022-07-26T01:19:31.181Z,13.73
2022-07-26T01:21:57.693Z,13.20
2022-07-26T01:24:24.179Z,14.60
2022-07-26T01:26:50.632Z,9.93
2022-07-26T01:29:17.229Z,9.83
2022-07-26T01:31:43.740Z,10.70
2022-07-26T01:34:10.572Z,13.23
2022-07-26T01:36:37.518Z,11.37
2022-07-26T01:39:06.688Z,11.83
2022-07-26T01:41:37.988Z,8.97
2022-07-26T01:44:06.498Z,12.47
2022-07-26T01:46:34.452Z,9.40
2022-07-26T01:49:01.807Z,14.40
2022-07-26T01:51:28.621Z,11.60
2022-07-26T01:53:55.245Z,11.40
2022-07-26T01:56:21.745Z,14.23
2022-07-26T01:58:48.245Z,15.83
2022-07-26T02:01:14.767Z,16.70
2022-07-26T02:03:41.342Z,12.93
2022-07-26T02:06:08.159Z,10.77
2022-07-26T02:08:34.652Z,9.97
2022-07-26T02:11:03.708Z,14.30
2022-07-26T02:13:37.586Z,14.87
2022-07-26T02:16:06.694Z,15.10
2022-07-26T02:18:33.783Z,10.10
2022-07-26T02:21:01.479Z,17.43
2022-07-26T02:23:28.631Z,12.83
2022-07-26T02:25:55.702Z,14.33
2022-07-26T02:28:23.557Z,11.87
2022-07-26T02:30:50.549Z,12.30
2022-07-26T02:33:18.356Z,15.60
2022-07-26T02:35:46.149Z,16.73
2022-07-26T02:38:15.029Z,13.97
2022-07-26T02:40:42.225Z,13.67
2022-07-26T02:43:10.170Z,12.27
2022-07-26T02:45:37.364Z,11.93
2022-07-26T02:48:04.479Z,9.13
2022-07-26T02:50:32.096Z,9.43
2022-07-26T02:52:58.619Z,10.97
2022-07-26T02:55:26.886Z,12.17
2022-07-26T02:57:53.532Z,12.63
2022-07-26T03:00:23.716Z,14.63
2022-07-26T03:02:51.453Z,13.27
2022-07-26T03:05:18.443Z,12.33
2022-07-26T03:07:45.091Z,14.40
2022-07-26T03:10:11.552Z,14.47
2022-07-26T03:12:38.119Z,16.30
2022-07-26T03:15:05.876Z,15.10
2022-07-26T03:17:32.641Z,17.93
2022-07-26T03:19:59.154Z,12.37
2022-07-26T03:22:25.615Z,14.60
2022-07-26T03:24:52.166Z,15.50
2022-07-26T03:27:18.641Z,15.50
2022-07-26T03:29:45.121Z,15.47
2022-07-26T03:32:11.674Z,12.70
2022-07-26T03:34:38.195Z,14.33
2022-07-26T03:37:04.922Z,13.10
2022-07-26T03:39:31.559Z,11.83
2022-07-26T03:41:58.027Z,11.03
2022-07-26T03:44:24.504Z,12.90
2022-07-26T03:46:50.954Z,15.47
2022-07-26T03:49:17.620Z,13.87
2022-07-26T03:51:44.416Z,14.50
2022-07-26T03:54:11.387Z,13.60
2022-07-26T03:56:38.390Z,14.47
2022-07-26T03:59:07.829Z,10.53
2022-07-26T04:01:35.566Z,22.43
2022-07-26T04:04:02.129Z,16.20
2022-07-26T04:06:29.901Z,13.90
2022-07-26T04:08:56.598Z,15.37
2022-07-26T04:11:27.708Z,15.33
2022-07-26T04:13:55.560Z,12.60
2022-07-26T04:16:22.280Z,16.40
2022-07-26T04:18:48.869Z,18.93
2022-07-26T04:21:15.551Z,11.93
2022-07-26T04:23:42.080Z,15.53
2022-07-26T04:26:08.615Z,15.37
2022-07-26T04:28:35.233Z,14.73
2022-07-26T04:31:02.056Z,21.50
2022-07-26T04:33:28.554Z,16.97
2022-07-26T04:35:55.105Z,14.40
2022-07-26T04:38:21.606Z,19.07
2022-07-26T04:40:50.414Z,12.90
2022-07-26T04:43:17.685Z,13.47
2022-07-26T04:45:48.337Z,18.53
2022-07-26T04:48:16.099Z,19.40
2022-07-26T04:50:43.503Z,23.90
2022-07-26T04:53:11.188Z,15.60
2022-07-26T04:55:38.550Z,20.10
2022-07-26T04:58:05.418Z,21.30
2022-07-26T05:00:31.979Z,20.77
2022-07-26T05:03:00.053Z,12.47
2022-07-26T05:05:29.312Z,17.80
2022-07-26T05:07:59.014Z,14.43
2022-07-26T05:10:35.373Z,19.20
2022-07-26T05:13:04.431Z,23.57
2022-07-26T05:15:35.028Z,13.67
2022-07-26T05:18:06.864Z,21.93
2022-07-26T05:20:34.605Z,16.67
2022-07-26T05:23:01.177Z,16.87
2022-07-26T05:25:27.774Z,18.80
2022-07-26T05:27:54.333Z,19.03
2022-07-26T05:30:21.272Z,17.83
2022-07-26T05:32:47.805Z,15.40
2022-07-26T05:35:14.689Z,17.87
2022-07-26T05:37:41.212Z,20.67
2022-07-26T05:40:08.280Z,18.33
2022-07-26T05:42:34.865Z,17.93
2022-07-26T05:45:01.486Z,17.87
2022-07-26T05:47:27.981Z,14.33
2022-07-26T05:49:55.227Z,17.00
2022-07-26T05:52:36.454Z,20.60
2022-07-26T05:55:03.101Z,16.03
2022-07-26T05:57:29.593Z,17.03
2022-07-26T05:59:56.111Z,13.40
2022-07-26T06:02:22.761Z,22.97
2022-07-26T06:04:49.329Z,22.37
2022-07-26T06:07:16.049Z,15.63
2022-07-26T06:09:42.914Z,21.17
2022-07-26T06:12:09.599Z,23.90
2022-07-26T06:14:36.324Z,20.73
2022-07-26T06:17:04.410Z,21.63
2022-07-26T06:19:31.821Z,16.90
2022-07-26T06:21:58.370Z,21.20
2022-07-26T06:24:24.906Z,16.47
2022-07-26T06:26:56.814Z,15.47
2022-07-26T06:29:24.468Z,19.50
2022-07-26T06:31:58.731Z,18.27
2022-07-26T06:34:25.357Z,19.07
2022-07-26T06:36:51.869Z,18.10
2022-07-26T06:39:18.341Z,23.17
2022-07-26T06:41:44.811Z,19.30
2022-07-26T06:44:11.856Z,19.93
2022-07-26T06:46:38.541Z,18.00
2022-07-26T06:49:05.612Z,19.30
2022-07-26T06:51:33.799Z,19.27
2022-07-26T06:54:01.011Z,14.10
2022-07-26T06:56:27.735Z,23.83
2022-07-26T06:58:55.315Z,16.43
2022-07-26T07:01:59.562Z,20.43
2022-07-26T07:04:09.284Z,28.30
2022-07-26T07:06:36.120Z,18.60
2022-07-26T07:09:02.648Z,20.83
2022-07-26T07:11:29.512Z,24.23
2022-07-26T07:13:56.318Z,18.33
2022-07-26T07:16:22.905Z,19.00
2022-07-26T07:18:51.271Z,20.17
2022-07-26T07:21:17.785Z,18.23
2022-07-26T07:23:44.351Z,24.37
2022-07-26T07:26:10.987Z,21.53
2022-07-26T07:28:40.514Z,23.50
2022-07-26T07:31:07.057Z,16.77
2022-07-26T07:33:43.716Z,17.97
2022-07-26T07:36:20.098Z,21.10
2022-07-26T07:38:47.075Z,17.70
2022-07-26T07:41:13.673Z,26.13
2022-07-26T07:43:40.181Z,17.83
2022-07-26T07:46:07.000Z,16.63
2022-07-26T07:48:33.508Z,24.40
2022-07-26T07:51:00.122Z,26.53
2022-07-26T07:53:26.624Z,18.93
2022-07-26T07:55:55.266Z,20.60
2022-07-26T07:58:22.115Z,20.53
2022-07-26T08:00:48.822Z,17.50
2022-07-26T08:03:18.564Z,20.03
2022-07-26T08:05:46.933Z,17.73
2022-07-26T08:08:16.970Z,17.90
2022-07-26T08:10:49.100Z,22.20
2022-07-26T08:13:21.254Z,17.17
2022-07-26T08:15:49.540Z,23.43
2022-07-26T08:18:16.432Z,18.20
2022-07-26T08:20:43.499Z,13.57
2022-07-26T08:23:10.340Z,27.53
2022-07-26T08:25:42.601Z,26.97
2022-07-26T08:28:37.622Z,19.70
2022-07-26T08:31:03.631Z,18.50
2022-07-26T08:33:30.200Z,17.80
2022-07-26T08:35:58.593Z,19.90
2022-07-26T08:38:25.518Z,20.40
2022-07-26T08:40:52.198Z,22.67
2022-07-26T08:43:18.699Z,18.93
2022-07-26T08:45:47.246Z,16.03
2022-07-26T08:48:18.336Z,22.83
2022-07-26T08:50:45.469Z,25.50
2022-07-26T08:53:13.227Z,25.47
2022-07-26T08:56:05.493Z,21.57
2022-07-26T08:58:26.677Z,23.20
2022-07-26T09:01:13.884Z,17.23
2022-07-26T09:03:42.573Z,15.17
2022-07-26T09:06:12.210Z,17.13
2022-07-26T09:08:38.824Z,15.30
2022-07-26T09:11:23.826Z,20.53
2022-07-26T09:13:55.796Z,15.67
2022-07-26T09:16:22.513Z,13.93
2022-07-26T09:18:49.173Z,16.70
2022-07-26T09:21:38.723Z,13.63
2022-07-26T09:24:05.723Z,15.60
2022-07-26T09:26:32.271Z,17.27
2022-07-26T09:29:10.451Z,17.73
2022-07-26T09:31:38.562Z,17.63
2022-07-26T09:34:06.937Z,17.90
2022-07-26T09:36:33.836Z,13.50
2022-07-26T09:39:02.404Z,13.97
2022-07-26T09:41:36.938Z,19.23
2022-07-26T09:44:20.764Z,19.00
2022-07-26T09:46:58.868Z,11.77
2022-07-26T09:49:32.522Z,19.50
2022-07-26T09:52:21.720Z,15.47
2022-07-26T09:54:49.609Z,18.83
2022-07-26T09:57:18.539Z,13.63
2022-07-26T09:59:46.329Z,17.73
2022-07-26T10:02:14.126Z,15.60
2022-07-26T10:04:42.290Z,12.87
2022-07-26T10:07:10.170Z,25.03
2022-07-26T10:09:45.209Z,13.60
2022-07-26T10:12:15.726Z,10.43
2022-07-26T10:14:43.295Z,17.13
2022-07-26T10:17:29.261Z,12.63
2022-07-26T10:19:58.895Z,9.80
2022-07-26T10:22:26.781Z,12.83
2022-07-26T10:24:58.598Z,8.70
2022-07-26T10:27:39.901Z,11.37
2022-07-26T10:30:33.758Z,10.40
2022-07-26T10:33:04.037Z,9.40
2022-07-26T10:35:36.752Z,14.80
2022-07-26T10:38:03.279Z,15.63
2022-07-26T10:40:30.300Z,12.60
2022-07-26T10:46:16.121Z,10.67
2022-07-26T10:48:59.177Z,17.17
2022-07-26T10:51:28.478Z,13.07
2022-07-26T10:54:12.166Z,12.07
2022-07-26T10:56:39.823Z,14.03
2022-07-26T10:59:06.819Z,12.23
2022-07-26T11:01:42.129Z,12.53
2022-07-26T11:04:19.076Z,12.50
2022-07-26T11:06:47.537Z,11.63
2022-07-26T11:09:14.060Z,13.30
2022-07-26T11:11:46.984Z,11.47
2022-07-26T11:14:16.698Z,11.20
2022-07-26T11:16:50.294Z,12.90
2022-07-26T11:19:23.270Z,14.53
2022-07-26T11:21:55.400Z,12.90
2022-07-26T11:24:22.152Z,10.90
2022-07-26T11:26:49.128Z,17.07
2022-07-26T11:29:17.475Z,11.30
2022-07-26T11:31:51.420Z,14.00
2022-07-26T11:34:33.334Z,9.87
2022-07-26T11:37:04.705Z,12.60
2022-07-26T11:39:34.573Z,12.90
2022-07-26T11:42:04.192Z,13.27
2022-07-26T11:44:31.448Z,8.97
2022-07-26T11:46:58.504Z,10.13
2022-07-26T11:52:25.492Z,12.10
2022-07-26T11:54:53.540Z,10.60
2022-07-26T11:57:20.623Z,15.17
2022-07-26T11:59:50.437Z,8.20
2022-07-26T12:02:17.420Z,8.37
2022-07-26T12:04:44.868Z,8.47
2022-07-26T12:07:16.960Z,10.90
2022-07-26T12:09:46.224Z,8.97
2022-07-26T12:12:21.480Z,8.70
2022-07-26T12:15:01.178Z,8.50
2022-07-26T12:17:34.940Z,9.43
2022-07-26T12:20:18.377Z,10.33
2022-07-26T12:22:56.164Z,10.70
2022-07-26T12:25:27.532Z,7.80
2022-07-26T12:27:54.460Z,9.50
2022-07-26T12:30:21.513Z,11.07
2022-07-26T12:32:51.419Z,13.07
2022-07-26T12:35:29.760Z,8.93
2022-07-26T12:37:57.151Z,9.20
2022-07-26T12:40:39.472Z,8.40
2022-07-26T12:43:06.307Z,8.53
2022-07-26T12:45:34.792Z,8.50
2022-07-26T12:48:03.727Z,8.80
2022-07-26T12:50:31.703Z,9.40
2022-07-26T12:53:04.634Z,12.07
2022-07-26T12:55:31.745Z,8.10
2022-07-26T12:57:59.455Z,8.90
2022-07-26T13:00:26.359Z,7.50
2022-07-26T13:02:55.603Z,10.00
2022-07-26T13:05:22.523Z,8.30
2022-07-26T13:07:49.135Z,8.60
2022-07-26T13:10:33.074Z,9.27
2022-07-26T13:13:00.930Z,7.90
2022-07-26T13:15:36.398Z,9.07
2022-07-26T13:18:08.502Z,9.47
2022-07-26T13:20:38.430Z,8.80
2022-07-26T13:23:05.917Z,9.57
2022-07-26T13:25:39.685Z,9.53
2022-07-26T13:28:07.807Z,9.17
2022-07-26T13:30:36.433Z,8.73
2022-07-26T13:33:03.075Z,7.90
2022-07-26T13:35:29.552Z,7.63
2022-07-26T13:37:56.048Z,7.23
2022-07-26T13:40:25.291Z,8.40
2022-07-26T13:42:54.098Z,8.13
2022-07-26T13:45:20.718Z,8.30
2022-07-26T13:47:47.297Z,7.60
2022-07-26T13:50:13.788Z,8.10
2022-07-26T13:52:40.332Z,7.93
2022-07-26T13:55:07.173Z,8.77
2022-07-26T13:57:48.052Z,7.90
2022-07-26T14:00:20.331Z,8.43
2022-07-26T14:02:47.000Z,13.53
2022-07-26T14:05:13.650Z,16.70
2022-07-26T14:07:42.401Z,13.77
2022-07-26T14:10:09.353Z,7.30
2022-07-26T14:12:37.179Z,13.83
2022-07-26T14:15:11.283Z,11.87
2022-07-26T14:17:39.988Z,8.57
2022-07-26T14:20:07.049Z,11.77
2022-07-26T14:22:33.721Z,10.20
2022-07-26T14:25:00.354Z,7.70
2022-07-26T14:27:26.869Z,11.47
2022-07-26T14:29:53.441Z,13.73
2022-07-26T14:32:22.208Z,15.60
2022-07-26T14:34:49.642Z,10.07
2022-07-26T14:37:42.484Z,8.07
2022-07-26T14:40:07.282Z,10.70
2022-07-26T14:42:34.088Z,8.23
2022-07-26T14:45:00.618Z,9.00
2022-07-26T14:47:27.150Z,9.93
2022-07-26T14:49:53.615Z,9.63
2022-07-26T14:52:20.194Z,9.33
2022-07-26T14:54:46.755Z,9.63
2022-07-26T14:57:13.226Z,11.63
2022-07-26T14:59:39.681Z,11.77
2022-07-26T15:02:06.376Z,11.17
2022-07-26T15:04:33.167Z,9.73
2022-07-26T15:06:59.855Z,11.20
2022-07-26T15:09:26.375Z,9.53
2022-07-26T15:11:53.089Z,11.67
2022-07-26T15:14:19.886Z,8.87
2022-07-26T15:16:46.486Z,8.93
2022-07-26T15:19:13.104Z,11.37
2022-07-26T15:21:39.692Z,8.57
2022-07-26T15:24:06.464Z,7.80
2022-07-26T15:26:32.945Z,7.33
2022-07-26T15:28:59.460Z,9.63
2022-07-26T15:31:37.045Z,8.23
2022-07-26T15:34:07.370Z,7.80
2022-07-26T15:36:34.170Z,10.77
2022-07-26T15:39:15.619Z,7.50
2022-07-26T15:41:43.057Z,8.30
2022-07-26T15:44:10.481Z,8.90
2022-07-26T15:46:38.960Z,8.90
2022-07-26T15:49:06.720Z,14.20
2022-07-26T15:51:33.559Z,8.00
2022-07-26T15:54:00.296Z,9.40
2022-07-26T15:56:26.795Z,7.90
2022-07-26T15:58:53.345Z,9.43
2022-07-26T16:01:19.930Z,9.43
2022-07-26T16:03:47.812Z,9.37
2022-07-26T16:06:14.358Z,9.83
2022-07-26T16:08:58.934Z,8.77
2022-07-26T16:11:30.919Z,8.37
2022-07-26T16:14:01.136Z,10.60
2022-07-26T16:16:29.521Z,8.93
2022-07-26T16:18:56.388Z,8.10
2022-07-26T16:21:22.995Z,8.53
2022-07-26T16:23:50.903Z,7.83
2022-07-26T16:26:17.837Z,8.90
2022-07-26T16:28:44.395Z,8.43
2022-07-26T16:31:10.927Z,8.07
2022-07-26T16:33:37.794Z,10.07
2022-07-26T16:36:12.314Z,9.83
2022-07-26T16:38:38.786Z,9.70
2022-07-26T16:41:05.295Z,12.50
2022-07-26T16:43:31.855Z,12.80
2022-07-26T16:45:58.304Z,8.13
2022-07-26T16:48:24.796Z,9.87
2022-07-26T16:50:51.322Z,11.43
2022-07-26T16:53:17.810Z,9.53
2022-07-26T16:55:45.315Z,10.83
2022-07-26T16:58:11.794Z,11.30
2022-07-26T17:00:38.359Z,10.20
2022-07-26T17:03:05.128Z,8.83
2022-07-26T17:05:31.698Z,8.90
2022-07-26T17:07:58.266Z,12.60
2022-07-26T17:10:25.748Z,8.43
2022-07-26T17:12:52.427Z,10.13
2022-07-26T17:15:18.931Z,9.73
2022-07-26T17:17:48.650Z,15.53
2022-07-26T17:20:16.280Z,14.63
2022-07-26T17:22:42.821Z,8.20
2022-07-26T17:25:09.821Z,11.57
2022-07-26T17:27:36.683Z,10.60
2022-07-26T17:30:07.180Z,14.20
2022-07-26T17:32:34.371Z,8.90
2022-07-26T17:35:01.066Z,10.70
2022-07-26T17:37:27.709Z,11.40
2022-07-26T17:39:55.335Z,11.20
2022-07-26T17:42:24.103Z,9.87
2022-07-26T17:44:53.382Z,10.50
2022-07-26T17:47:29.243Z,9.20
2022-07-26T17:50:35.261Z,10.60
2022-07-26T17:52:53.632Z,9.70
2022-07-26T17:55:20.852Z,13.00
2022-07-26T17:57:49.694Z,9.67
2022-07-26T18:00:21.325Z,10.03
2022-07-26T18:02:48.449Z,10.93
2022-07-26T18:05:15.348Z,11.70
2022-07-26T18:07:41.997Z,9.40
2022-07-26T18:10:10.089Z,9.40
2022-07-26T18:12:36.692Z,11.87
2022-07-26T18:15:03.326Z,11.10
2022-07-26T18:17:29.970Z,10.27
2022-07-26T18:19:56.428Z,8.77
2022-07-26T18:22:23.347Z,11.87
2022-07-26T18:24:50.006Z,10.80
2022-07-26T18:27:16.484Z,14.53
2022-07-26T18:29:43.023Z,20.10
2022-07-26T18:32:09.566Z,13.53
2022-07-26T18:34:36.111Z,10.90
2022-07-26T18:37:02.823Z,10.47
2022-07-26T18:39:32.582Z,12.80
2022-07-26T18:41:59.579Z,13.13
2022-07-26T18:44:26.045Z,12.10
2022-07-26T18:46:52.742Z,11.27
2022-07-26T18:49:20.086Z,13.13
2022-07-26T18:51:48.765Z,12.30
2022-07-26T18:54:16.524Z,11.77
2022-07-26T18:56:43.665Z,11.70
2022-07-26T18:59:10.467Z,10.60
2022-07-26T19:01:37.358Z,11.87
2022-07-26T19:04:07.080Z,8.80
2022-07-26T19:06:34.674Z,10.47
2022-07-26T19:09:01.280Z,11.30
2022-07-26T19:11:29.519Z,9.60
2022-07-26T19:13:56.041Z,11.70
2022-07-26T19:16:22.790Z,15.13
2022-07-26T19:18:52.735Z,12.27
2022-07-26T19:21:22.202Z,10.47
2022-07-26T19:23:48.690Z,15.43
2022-07-26T19:26:15.161Z,14.13
2022-07-26T19:28:41.884Z,12.03
2022-07-26T19:31:08.486Z,9.23
2022-07-26T19:33:34.943Z,12.40
2022-07-26T19:36:01.611Z,13.73
2022-07-26T19:38:28.152Z,13.80
2022-07-26T19:40:55.248Z,13.43
2022-07-26T19:43:22.654Z,15.20
2022-07-26T19:45:49.219Z,11.07
2022-07-26T19:48:15.769Z,13.80
2022-07-26T19:50:42.542Z,13.50
2022-07-26T19:53:09.006Z,12.47
2022-07-26T19:55:38.254Z,13.40
2022-07-26T19:58:05.012Z,10.47
2022-07-26T20:00:31.492Z,14.97
2022-07-26T20:02:58.066Z,12.57
2022-07-26T20:05:24.628Z,12.97
2022-07-26T20:07:51.365Z,16.40
2022-07-26T20:10:17.993Z,13.20
2022-07-26T20:12:44.580Z,11.60
2022-07-26T20:15:14.237Z,18.63
2022-07-26T20:17:41.381Z,11.20
2022-07-26T20:20:09.666Z,10.10
2022-07-26T20:22:36.519Z,12.30
2022-07-26T20:25:03.076Z,13.10
2022-07-26T20:27:29.622Z,19.43
2022-07-26T20:30:00.753Z,14.13
2022-07-26T20:32:27.708Z,18.20
2022-07-26T20:34:54.214Z,11.40
2022-07-26T20:37:20.785Z,12.83
2022-07-26T20:39:47.294Z,14.07
2022-07-26T20:42:21.451Z,10.70
2022-07-26T20:44:48.756Z,12.67
2022-07-26T20:47:15.329Z,13.33
2022-07-26T20:49:41.806Z,13.70
2022-07-26T20:52:08.296Z,20.37
2022-07-26T20:54:34.795Z,12.20
2022-07-26T20:57:04.362Z,13.20
2022-07-26T20:59:32.367Z,14.60
2022-07-26T21:01:59.022Z,11.27
2022-07-26T21:04:25.846Z,13.23
2022-07-26T21:06:52.763Z,11.20
2022-07-26T21:09:19.846Z,13.20
2022-07-26T21:11:46.751Z,10.93
2022-07-26T21:14:13.327Z,11.53
2022-07-26T21:16:39.888Z,16.17
2022-07-26T21:19:06.486Z,12.23
2022-07-26T21:21:34.194Z,14.30
2022-07-26T21:24:00.809Z,10.00
2022-07-26T21:26:27.265Z,11.23
2022-07-26T21:28:53.737Z,13.50
2022-07-26T21:31:21.008Z,10.57
2022-07-26T21:33:47.541Z,17.20
2022-07-26T21:36:14.350Z,14.53
2022-07-26T21:38:41.654Z,11.07
2022-07-26T21:41:08.353Z,11.07
2022-07-26T21:43:34.840Z,12.10
2022-07-26T21:46:02.782Z,11.90
2022-07-26T21:48:29.995Z,12.10
2022-07-26T21:50:56.513Z,13.30
2022-07-26T21:53:23.003Z,9.87
2022-07-26T21:55:49.545Z,8.23
2022-07-26T21:58:16.092Z,12.73
2022-07-26T22:00:43.208Z,13.47
2022-07-26T22:03:11.729Z,14.37
2022-07-26T22:05:38.307Z,13.27
2022-07-26T22:08:14.191Z,12.77
2022-07-26T22:10:44.554Z,10.83
2022-07-26T22:13:12.156Z,11.03
2022-07-26T22:15:38.690Z,10.60
2022-07-26T22:18:06.002Z,15.70
2022-07-26T22:20:34.338Z,12.13
2022-07-26T22:23:03.604Z,11.37
2022-07-26T22:25:31.570Z,13.57
2022-07-26T22:27:58.704Z,12.67
2022-07-26T22:30:28.326Z,9.57
2022-07-26T22:32:59.944Z,12.77
2022-07-26T22:35:32.369Z,14.43
2022-07-26T22:38:10.232Z,12.33
2022-07-26T22:40:38.678Z,12.50
2022-07-26T22:43:06.304Z,14.23
2022-07-26T22:45:33.740Z,11.50
2022-07-26T22:48:01.847Z,15.57
2022-07-26T22:50:29.094Z,18.43
2022-07-26T22:52:56.254Z,14.73
2022-07-26T22:55:23.043Z,16.37
2022-07-26T22:57:49.763Z,10.27
2022-07-26T23:00:18.304Z,10.40
2022-07-26T23:02:44.968Z,11.07
2022-07-26T23:05:11.991Z,12.43
2022-07-26T23:07:38.787Z,10.60
2022-07-26T23:10:09.053Z,9.07
2022-07-26T23:12:36.748Z,17.37
2022-07-26T23:15:05.599Z,10.50
2022-07-26T23:17:32.241Z,8.90
2022-07-26T23:19:58.767Z,12.83
2022-07-26T23:22:25.387Z,13.70
2022-07-26T23:24:51.847Z,11.07
2022-07-26T23:27:20.274Z,11.10
2022-07-26T23:29:48.019Z,12.17
2022-07-26T23:32:15.654Z,10.47
2022-07-26T23:34:42.165Z,11.00
2022-07-26T23:37:08.752Z,12.60
2022-07-26T23:39:35.299Z,9.97
2022-07-26T23:42:02.938Z,9.77
2022-07-26T23:44:33.146Z,12.30
2022-07-26T23:46:59.714Z,12.80
2022-07-26T23:49:26.597Z,13.60
2022-07-26T23:51:53.247Z,8.93
2022-07-26T23:54:20.146Z,12.77
2022-07-26T23:56:47.435Z,11.73
2022-07-26T23:59:14.573Z,19.13
